Data for 01/19/2017

Time Sea-Level Adjusted Pressure Absolute Pressure Temperature Relative Humidity Dew Point   
(mb) (inHg) (mb) (inHg) (C) (F) (%) (C) (F)
00:05 1006 29.71 835 24.66 1.5 34.8 50 -7.8 17.9
00:10 1006 29.71 835 24.66 1.6 34.9 50 -7.7 18.2
00:15 1006 29.71 835 24.66 1.8 35.2 49 -7.9 17.8
00:20 1006 29.71 835 24.66 1.5 34.8 53 -7 19.4
00:25 1006 29.71 835 24.66 0.8 33.4 54 -7.5 18.4
00:30 1006 29.71 835 24.66 0.8 33.4 55 -7.3 18.9
00:35 1006 29.71 835 24.66 0.2 32.4 58 -7.1 19.2
00:40 1006 29.71 835 24.66 -0.4 31.2 58 -7.7 18.1
00:45 1006 29.71 835 24.66 0.3 32.5 56 -7.6 18.3
00:50 1006 29.71 835 24.66 -0.5 31.1 60 -7.4 18.7
00:55 1006 29.71 835 24.66 -0.4 31.3 56 -8.1 17.5
01:00 1006 29.71 835 24.66 0.1 32.2 55 -8 17.7
01:05 1006 29.71 835 24.66 0.3 32.6 55 -7.7 18.2
01:10 1006 29.71 835 24.66 0.4 32.7 55 -7.6 18.3
01:15 1006 29.71 835 24.66 0.3 32.6 54 -7.9 17.7
01:20 1006 29.71 835 24.66 0.6 33.1 55 -7.5 18.5
01:25 1006 29.71 835 24.66 0.3 32.6 54 -8 17.6
01:30 1006 29.71 835 24.66 0.4 32.7 56 -7.4 18.6
01:35 1006 29.71 835 24.66 0.3 32.6 54 -7.9 17.8
01:40 1006 29.71 835 24.66 0.1 32.2 59 -7 19.5
01:45 1006 29.71 835 24.66 -0.2 31.6 58 -7.6 18.4
01:50 1006 29.71 835 24.66 0 32.1 56 -7.7 18.1
01:55 1006 29.71 835 24.66 0.1 32.1 58 -7.3 18.8
02:00 1005 29.68 835 24.66 0.2 32.4 56 -7.6 18.2
02:05 1005 29.68 835 24.66 0.2 32.4 57 -7.2 19
02:10 1005 29.68 834 24.63 0.4 32.7 58 -6.9 19.6
02:15 1005 29.68 834 24.63 0.6 33.2 57 -6.8 19.7
02:20 1005 29.68 834 24.63 0.7 33.2 58 -6.6 20.1
02:25 1005 29.68 834 24.63 0.6 33.1 57 -6.9 19.6
02:30 1005 29.68 834 24.63 1.2 34.1 57 -6.4 20.4
02:35 1005 29.68 834 24.63 1.2 34.2 56 -6.5 20.2
02:40 1005 29.68 834 24.63 1.4 34.4 55 -6.7 19.9
02:45 1005 29.68 834 24.63 1.6 34.8 56 -6.2 20.8
02:50 1005 29.68 834 24.63 1.3 34.3 56 -6.7 20
02:55 1005 29.68 834 24.63 1.5 34.8 52 -7.3 18.9
03:00 1005 29.68 834 24.63 2 35.5 53 -6.7 19.9
03:05 1005 29.68 834 24.63 2.2 36 52 -6.6 20.1
03:10 1005 29.68 834 24.63 2.3 36.1 51 -6.8 19.8
03:15 1005 29.68 834 24.63 2.3 36.1 51 -6.8 19.8
03:20 1005 29.68 834 24.63 2.4 36.3 51 -6.7 19.9
03:25 1005 29.68 834 24.63 2.4 36.4 50 -6.9 19.7
03:30 1005 29.68 834 24.63 2.3 36.2 55 -5.9 21.4
03:35 1005 29.68 834 24.63 1.4 34.5 58 -6.1 21.1
03:40 1005 29.68 834 24.63 0.8 33.5 59 -6.2 20.8
03:45 1005 29.68 834 24.63 0.7 33.3 59 -6.3 20.6
03:50 1005 29.68 834 24.63 0.5 32.8 60 -6.3 20.6
03:55 1005 29.68 834 24.63 0.3 32.6 62 -6.2 20.8
04:00 1005 29.68 834 24.63 0.3 32.5 61 -6.3 20.6
04:05 1005 29.68 834 24.63 0.3 32.6 61 -6.4 20.5
04:10 1005 29.68 834 24.63 0.3 32.6 61 -6.4 20.5
04:15 1005 29.68 834 24.63 0.3 32.6 60 -6.6 20.1
04:20 1005 29.68 834 24.63 0.7 33.3 57 -6.8 19.7
04:25 1005 29.68 834 24.63 0.8 33.4 59 -6.4 20.5
04:30 1005 29.68 834 24.63 0.5 32.8 61 -6.3 20.7
04:35 1005 29.68 834 24.63 0.3 32.6 61 -6.3 20.7
04:40 1005 29.68 834 24.63 0.3 32.5 59 -6.8 19.7
04:45 1005 29.68 834 24.63 0.3 32.5 58 -7 19.5
04:50 1005 29.68 834 24.63 0.3 32.5 58 -7.1 19.3
04:55 1005 29.68 834 24.63 0 32.1 60 -6.9 19.6
05:00 1005 29.68 834 24.63 -0.4 31.3 60 -7.1 19.2
05:05 1005 29.68 834 24.63 -0.7 30.7 63 -6.9 19.5
05:10 1005 29.68 834 24.63 -1.2 29.9 62 -7.6 18.3
05:15 1005 29.68 834 24.63 -1.3 29.7 62 -7.6 18.3
05:20 1005 29.68 834 24.63 -1.2 29.8 62 -7.7 18.2
05:25 1005 29.68 834 24.63 -0.7 30.7 60 -7.6 18.3
05:30 1005 29.68 834 24.63 -0.4 31.2 59 -7.5 18.5
05:35 1005 29.68 834 24.63 -0.1 31.7 58 -7.4 18.6
05:40 1005 29.68 834 24.63 -0.1 31.8 58 -7.4 18.7
05:45 1005 29.68 834 24.63 0.1 32.2 58 -7.2 19.1
05:50 1005 29.68 834 24.63 0.3 32.5 56 -7.5 18.5
05:55 1004 29.65 834 24.63 0.8 33.4 56 -7 19.4
06:00 1004 29.65 834 24.63 0.5 33 57 -7.1 19.2
06:05 1005 29.68 834 24.63 0.4 32.7 59 -6.8 19.7
06:10 1004 29.65 834 24.63 -0.5 31 63 -6.8 19.8
06:15 1004 29.65 834 24.63 -0.9 30.5 63 -7 19.3
06:20 1004 29.65 834 24.63 -0.7 30.8 62 -7 19.4
06:25 1004 29.65 834 24.63 -0.1 31.9 58 -7.5 18.5
06:30 1004 29.65 834 24.63 0.4 32.7 58 -6.9 19.6
06:35 1004 29.65 833 24.6 0.2 32.4 58 -7.1 19.3
06:40 1004 29.65 833 24.6 0.1 32.1 60 -6.9 19.6
06:45 1004 29.65 833 24.6 -0.2 31.7 60 -7 19.4
06:50 1004 29.65 833 24.6 -0.4 31.2 62 -6.8 19.7
06:55 1004 29.65 834 24.63 -0.5 31.1 61 -7.2 19
07:00 1004 29.65 833 24.6 -0.5 31.1 60 -7.4 18.7
07:05 1004 29.65 833 24.6 -0.3 31.4 59 -7.5 18.5
07:10 1004 29.65 834 24.63 -0.5 31.1 60 -7.3 18.9
07:15 1004 29.65 834 24.63 -0.9 30.4 61 -7.5 18.5
07:20 1004 29.65 834 24.63 -0.6 30.9 59 -7.8 18
07:25 1005 29.68 834 24.63 -0.2 31.7 56 -7.9 17.8
07:30 1005 29.68 834 24.63 0.5 32.9 53 -7.9 17.7
07:35 1005 29.68 834 24.63 0.9 33.7 52 -7.8 18
07:40 1005 29.68 834 24.63 1 33.7 53 -7.5 18.5
07:45 1005 29.68 834 24.63 1 33.8 52 -7.7 18.1
07:50 1005 29.68 834 24.63 0.3 32.5 59 -6.8 19.7
07:55 1005 29.68 834 24.63 -0.9 30.4 61 -7.5 18.5
08:00 1005 29.68 834 24.63 -1.8 28.8 65 -7.5 18.5
08:05 1005 29.68 834 24.63 -1.3 29.6 60 -8 17.5
08:10 1005 29.68 834 24.63 -0.3 31.5 57 -7.8 17.9
08:15 1005 29.68 834 24.63 -0.6 30.9 60 -7.4 18.6
08:20 1005 29.68 834 24.63 -1 30.3 60 -7.8 18
08:25 1005 29.68 834 24.63 -0.8 30.5 60 -7.7 18.1
08:30 1005 29.68 834 24.63 -1 30.1 61 -7.7 18.1
08:35 1005 29.68 834 24.63 -0.4 31.3 58 -7.6 18.4
08:40 1005 29.68 834 24.63 0.1 32.2 56 -7.6 18.2
08:45 1005 29.68 834 24.63 0.3 32.6 57 -7.3 18.9
08:50 1005 29.68 834 24.63 0.1 32.2 58 -7.3 18.9
08:55 1005 29.68 834 24.63 -1.5 29.2 62 -8 17.7
09:00 1005 29.68 834 24.63 -1.1 30 60 -7.9 17.8
09:05 1005 29.68 834 24.63 -1 30.3 60 -7.9 17.9
09:10 1005 29.68 834 24.63 -0.8 30.5 59 -7.9 17.7
09:15 1005 29.68 834 24.63 -0.8 30.5 61 -7.5 18.5
09:20 1005 29.68 834 24.63 -1.5 29.2 62 -7.9 17.8
09:25 1005 29.68 834 24.63 -1.1 29.9 62 -7.5 18.6
09:30 1005 29.68 835 24.66 -1 30.2 61 -7.6 18.3
09:35 1005 29.68 835 24.66 -0.6 30.9 59 -7.6 18.3
09:40 1005 29.68 835 24.66 -0.5 31.1 60 -7.4 18.8
09:45 1005 29.68 835 24.66 -0.5 31.1 62 -7 19.4
09:50 1006 29.71 835 24.66 -0.5 31 61 -7.1 19.1
09:55 1005 29.68 835 24.66 -0.6 31 61 -7.1 19.2
10:00 1005 29.68 835 24.66 -0.6 31 63 -6.9 19.7
10:05 1005 29.68 835 24.66 -0.7 30.8 62 -7.1 19.3
10:10 1006 29.71 835 24.66 -0.5 31 60 -7.3 18.8
10:15 1006 29.71 835 24.66 -0.3 31.5 59 -7.3 18.8
10:20 1006 29.71 835 24.66 -0.1 31.9 59 -7.2 19.1
10:25 1006 29.71 835 24.66 -0.1 31.7 59 -7.1 19.2
10:30 1006 29.71 835 24.66 -0.1 31.8 59 -7.1 19.2
10:35 1006 29.71 835 24.66 -0 32 59 -7 19.4
10:40 1006 29.71 835 24.66 0.2 32.3 59 -7 19.5
10:45 1006 29.71 835 24.66 0.5 32.9 57 -7.1 19.3
10:50 1006 29.71 835 24.66 0.9 33.7 55 -7 19.4
10:55 1006 29.71 835 24.66 1.1 34 56 -6.7 19.9
11:00 1006 29.71 835 24.66 1.1 34 56 -6.8 19.8
11:05 1006 29.71 835 24.66 1.2 34.2 56 -6.5 20.3
11:10 1006 29.71 835 24.66 1.3 34.4 56 -6.6 20.1
11:15 1006 29.71 835 24.66 1.5 34.8 55 -6.6 20.2
11:20 1006 29.71 835 24.66 1.7 35 55 -6.4 20.5
11:25 1005 29.68 835 24.66 1.7 35.1 56 -6.1 21
11:30 1005 29.68 835 24.66 2.2 35.9 57 -5.5 22
11:35 1005 29.68 835 24.66 2.7 36.8 61 -4 24.8
11:40 1005 29.68 835 24.66 2.9 37.3 63 -3.4 26
11:45 1005 29.68 835 24.66 3 37.3 65 -3 26.6
11:50 1005 29.68 835 24.66 2.9 37.2 66 -2.7 27.1
11:55 1005 29.68 834 24.63 3.1 37.5 66 -2.6 27.4
12:00 1005 29.68 834 24.63 3.3 38 66 -2.4 27.6
12:05 1005 29.68 834 24.63 3.5 38.3 66 -2.3 27.9
12:10 1005 29.68 834 24.63 3.7 38.6 65 -2.3 27.8
12:15 1005 29.68 834 24.63 3.8 38.9 64 -2.3 27.8
12:20 1005 29.68 834 24.63 4 39.2 63 -2.4 27.7
12:25 1005 29.68 834 24.63 4.1 39.4 62 -2.5 27.5
12:30 1005 29.68 834 24.63 4.2 39.5 60 -3 26.6
12:35 1005 29.68 834 24.63 4.2 39.6 59 -3.1 26.4
12:40 1005 29.68 834 24.63 4.3 39.8 58 -3.2 26.2
12:45 1004 29.65 834 24.63 4.4 39.9 57 -3.4 25.9
12:50 1004 29.65 834 24.63 4.4 39.9 57 -3.4 25.9
12:55 1004 29.65 834 24.63 4.5 40.1 56 -3.4 25.8
13:00 1004 29.65 834 24.63 4.8 40.6 55 -3.6 25.5
13:05 1004 29.65 834 24.63 4.9 40.8 54 -3.6 25.5
13:10 1004 29.65 833 24.6 5 40.9 52 -4 24.8
13:15 1004 29.65 834 24.63 5.1 41.3 51 -4 24.7
13:20 1004 29.65 833 24.6 5.4 41.7 50 -4.1 24.6
13:25 1004 29.65 833 24.6 5.4 41.8 50 -4.2 24.5
13:30 1004 29.65 833 24.6 5.5 41.9 49 -4.5 24
13:35 1004 29.65 833 24.6 5.8 42.4 48 -4.4 24.1
13:40 1004 29.65 833 24.6 6.2 43.2 49 -3.6 25.6
13:45 1004 29.65 833 24.6 5.7 42.3 56 -2.5 27.5
13:50 1004 29.65 833 24.6 5.3 41.6 54 -3.2 26.2
13:55 1004 29.65 833 24.6 5.6 42.1 54 -3.1 26.5
14:00 1004 29.65 833 24.6 4.5 40.2 57 -3.2 26.2
14:05 1004 29.65 833 24.6 3.7 38.6 58 -3.8 25.1
14:10 1004 29.65 833 24.6 3.5 38.2 58 -4.1 24.6
14:15 1004 29.65 833 24.6 3.5 38.4 58 -4.1 24.7
14:20 1004 29.65 833 24.6 2.8 37 61 -4.1 24.6
14:25 1004 29.65 833 24.6 2.9 37.3 59 -4.3 24.3
14:30 1004 29.65 833 24.6 3 37.4 61 -3.8 25.2
14:35 1004 29.65 833 24.6 2.3 36.2 60 -4.6 23.8
14:40 1004 29.65 833 24.6 2.2 35.9 64 -3.9 25
14:45 1004 29.65 833 24.6 1.9 35.5 62 -4.6 23.6
14:50 1003 29.62 833 24.6 2.3 36.1 62 -4.2 24.4
14:55 1003 29.62 833 24.6 2 35.5 62 -4.5 23.9
15:00 1003 29.62 833 24.6 2.1 35.8 63 -4.2 24.5
15:05 1003 29.62 833 24.6 2.6 36.7 60 -4.4 24.1
15:10 1003 29.62 833 24.6 3 37.4 58 -4.4 24
15:15 1003 29.62 833 24.6 3.1 37.5 60 -4 24.8
15:20 1003 29.62 833 24.6 2.9 37.2 58 -4.6 23.7
15:25 1003 29.62 833 24.6 3 37.4 57 -4.7 23.5
15:30 1003 29.62 833 24.6 3.1 37.7 57 -4.6 23.7
15:35 1003 29.62 833 24.6 3.6 38.4 56 -4.4 24.1
15:40 1003 29.62 833 24.6 3.7 38.7 55 -4.5 23.9
15:45 1003 29.62 833 24.6 3.5 38.3 56 -4.3 24.2
15:50 1003 29.62 832 24.57 3.8 38.8 57 -4.1 24.7
15:55 1003 29.62 833 24.6 4 39.2 55 -4.1 24.6
16:00 1003 29.62 833 24.6 4.1 39.4 56 -3.9 24.9
16:05 1003 29.62 833 24.6 4 39.3 56 -4 24.9
16:10 1003 29.62 833 24.6 4 39.1 56 -4.1 24.6
16:15 1003 29.62 833 24.6 3.7 38.6 58 -3.9 25
16:20 1003 29.62 833 24.6 3.4 38.1 59 -4 24.9
16:25 1003 29.62 833 24.6 3.2 37.8 60 -3.8 25.2
16:30 1003 29.62 833 24.6 3.1 37.6 60 -3.9 25.1
16:35 1003 29.62 833 24.6 2.8 37 61 -3.9 24.9
16:40 1003 29.62 833 24.6 2.9 37.2 60 -4 24.8
16:45 1003 29.62 833 24.6 2.8 37 62 -3.8 25.1
16:50 1004 29.65 833 24.6 2.7 36.9 62 -3.9 24.9
16:55 1004 29.65 833 24.6 2.8 37 61 -4 24.9
17:00 1004 29.65 833 24.6 2.8 37.1 61 -3.9 24.9
17:05 1004 29.65 833 24.6 2.8 37.1 61 -3.9 25
17:10 1004 29.65 833 24.6 3.1 37.5 61 -3.7 25.3
17:15 1004 29.65 833 24.6 3.3 37.9 60 -3.8 25.1
17:20 1004 29.65 833 24.6 3.3 37.9 59 -4 24.8
17:25 1004 29.65 833 24.6 3.2 37.8 58 -4.2 24.5
17:30 1004 29.65 833 24.6 3.2 37.7 59 -4 24.8
17:35 1004 29.65 833 24.6 3.1 37.6 60 -3.9 25
17:40 1004 29.65 833 24.6 3 37.4 60 -4 24.7
17:45 1004 29.65 833 24.6 2.9 37.3 60 -4.1 24.6
17:50 1004 29.65 833 24.6 2.9 37.1 59 -4.3 24.3
17:55 1004 29.65 833 24.6 2.9 37.2 60 -4.1 24.7
18:00 1004 29.65 833 24.6 2.9 37.1 59 -4.4 24.1
18:05 1004 29.65 833 24.6 2.8 37.1 60 -4.1 24.6
18:10 1004 29.65 833 24.6 2.9 37.2 60 -4.2 24.5
18:15 1004 29.65 833 24.6 2.9 37.2 60 -4.2 24.5
18:20 1004 29.65 833 24.6 2.8 37.1 60 -4.1 24.5
18:25 1004 29.65 833 24.6 2.8 37 61 -4 24.8
18:30 1004 29.65 833 24.6 2.8 37 61 -4.1 24.7
18:35 1004 29.65 833 24.6 2.7 36.9 60 -4.3 24.3
18:40 1004 29.65 833 24.6 2.6 36.7 62 -3.9 25.1
18:45 1004 29.65 833 24.6 2.6 36.6 62 -4 24.7
18:50 1004 29.65 833 24.6 2.5 36.5 60 -4.4 24
18:55 1004 29.65 833 24.6 2.4 36.4 62 -4.1 24.6
19:00 1004 29.65 833 24.6 2.3 36.2 64 -3.7 25.3
19:05 1004 29.65 833 24.6 1.9 35.4 67 -3.7 25.4
19:10 1004 29.65 833 24.6 1.6 35 68 -3.6 25.5
19:15 1004 29.65 833 24.6 1.5 34.8 68 -3.8 25.2
19:20 1004 29.65 833 24.6 1.6 34.8 68 -3.8 25.2
19:25 1004 29.65 833 24.6 1.5 34.8 68 -3.8 25.1
19:30 1004 29.65 833 24.6 1.5 34.7 68 -3.9 25
19:35 1004 29.65 833 24.6 1.6 34.9 68 -3.7 25.3
19:40 1004 29.65 833 24.6 1.7 35 67 -3.7 25.3
19:45 1004 29.65 833 24.6 1.5 34.8 67 -4 24.8
19:50 1004 29.65 833 24.6 1.7 35 65 -4.1 24.6
19:55 1004 29.65 833 24.6 1.7 35 65 -4.1 24.6
20:00 1004 29.65 833 24.6 1.7 35.1 66 -3.9 25
20:05 1004 29.65 833 24.6 1.8 35.2 67 -3.7 25.3
20:10 1004 29.65 833 24.6 1.6 34.8 69 -3.5 25.7
20:15 1004 29.65 833 24.6 1.5 34.7 70 -3.4 25.9
20:20 1004 29.65 833 24.6 1.6 34.8 68 -3.7 25.3
20:25 1004 29.65 833 24.6 1.5 34.6 67 -3.9 25
20:30 1004 29.65 833 24.6 1.3 34.4 68 -4 24.8
20:35 1004 29.65 833 24.6 1.2 34.2 68 -4 24.8
20:40 1004 29.65 833 24.6 1.2 34.2 69 -3.9 25
20:45 1004 29.65 833 24.6 1.2 34.2 68 -4 24.9
20:50 1004 29.65 833 24.6 1.1 34 69 -3.9 25
20:55 1004 29.65 833 24.6 1.1 34 68 -4.2 24.5
21:00 1004 29.65 833 24.6 1 33.9 70 -3.8 25.1
21:05 1004 29.65 833 24.6 0.9 33.5 72 -3.7 25.3
21:10 1004 29.65 833 24.6 0.6 33.1 73 -3.7 25.3
21:15 1004 29.65 833 24.6 0.6 33 73 -3.8 25.2
21:20 1004 29.65 833 24.6 0.7 33.3 70 -4.1 24.7
21:25 1004 29.65 833 24.6 0.8 33.4 70 -4 24.8
21:30 1004 29.65 833 24.6 1 33.8 69 -4.1 24.6
21:35 1004 29.65 833 24.6 1.2 34.1 69 -3.9 25
21:40 1004 29.65 833 24.6 1.1 34 70 -3.7 25.3
21:45 1004 29.65 833 24.6 1 33.9 70 -3.9 25
21:50 1004 29.65 833 24.6 1 33.8 69 -4.1 24.6
21:55 1004 29.65 833 24.6 1 33.8 69 -4 24.8
22:00 1004 29.65 833 24.6 1.2 34.1 68 -4 24.8
22:05 1004 29.65 833 24.6 1.2 34.2 69 -3.8 25.2
22:10 1004 29.65 833 24.6 1.1 34 70 -3.8 25.2
22:15 1004 29.65 833 24.6 1 33.8 71 -3.8 25.2
22:20 1004 29.65 833 24.6 0.8 33.5 70 -4 24.8
22:25 1004 29.65 833 24.6 0.7 33.3 72 -3.8 25.2
22:30 1004 29.65 833 24.6 0.7 33.3 71 -3.9 25
22:35 1004 29.65 833 24.6 0.7 33.3 71 -3.9 24.9
22:40 1004 29.65 833 24.6 0.8 33.4 70 -4 24.7
22:45 1004 29.65 833 24.6 0.8 33.5 71 -3.8 25.2
22:50 1004 29.65 833 24.6 0.7 33.3 71 -4 24.8
22:55 1004 29.65 833 24.6 0.6 33 71 -4.1 24.6
23:00 1004 29.65 833 24.6 0.7 33.3 71 -3.9 25
23:05 1004 29.65 833 24.6 0.9 33.6 72 -3.7 25.4
23:10 1004 29.65 833 24.6 0.8 33.5 71 -3.8 25.2
23:15 1004 29.65 833 24.6 0.8 33.5 70 -4 24.9
23:20 1004 29.65 833 24.6 0.9 33.5 71 -3.9 25
23:25 1004 29.65 833 24.6 0.9 33.7 70 -4 24.9
23:30 1004 29.65 833 24.6 1 33.7 70 -4 24.9
23:35 1004 29.65 833 24.6 0.9 33.6 72 -3.7 25.4
23:40 1004 29.65 833 24.6 0.7 33.2 71 -3.9 24.9
23:45 1004 29.65 833 24.6 0.5 33 73 -3.8 25.1
23:50 1004 29.65 833 24.6 0.3 32.6 75 -3.6 25.4
23:55 1004 29.65 833 24.6 0.2 32.4 76 -3.6 25.5
24:00 1004 29.65 833 24.6 0.2 32.4 76 -3.6 25.6